createdAt,value
2023-01-27T00:01:30.851Z,2.00
2023-01-27T00:04:10.904Z,1.88
2023-01-27T00:06:57.862Z,2.72
2023-01-27T00:09:37.975Z,2.47
2023-01-27T00:12:46.857Z,2.10
2023-01-27T00:15:26.963Z,2.53
2023-01-27T00:18:14.871Z,2.38
2023-01-27T00:21:13.450Z,2.88
2023-01-27T00:24:18.887Z,2.30
2023-01-27T00:26:58.933Z,2.20
2023-01-27T00:29:46.889Z,2.55
2023-01-27T00:32:45.584Z,2.45
2023-01-27T00:35:31.872Z,2.30
2023-01-27T00:38:11.892Z,2.22
2023-01-27T00:41:17.879Z,2.30
2023-01-27T00:44:01.998Z,2.63
2023-01-27T00:46:48.942Z,2.88
2023-01-27T00:49:42.891Z,2.60
2023-01-27T00:52:29.860Z,2.95
2023-01-27T00:55:10.824Z,3.00
2023-01-27T00:57:57.888Z,3.13
2023-01-27T01:00:44.876Z,3.00
2023-01-27T01:03:32.959Z,3.40
2023-01-27T01:06:22.858Z,3.90
2023-01-27T01:09:09.991Z,3.58
2023-01-27T01:11:49.885Z,3.17
2023-01-27T01:14:30.392Z,3.45
2023-01-27T01:17:16.903Z,3.88
2023-01-27T01:20:03.925Z,3.80
2023-01-27T01:22:43.893Z,3.70
2023-01-27T01:25:30.879Z,3.63
2023-01-27T01:28:19.895Z,3.38
2023-01-27T01:31:13.264Z,3.72
2023-01-27T01:34:00.905Z,3.30
2023-01-27T01:36:41.384Z,3.47
2023-01-27T01:39:27.878Z,3.70
2023-01-27T01:42:14.943Z,3.70
2023-01-27T01:45:17.877Z,3.70
2023-01-27T01:48:06.703Z,3.53
2023-01-27T01:51:04.880Z,3.65
2023-01-27T01:54:39.482Z,3.67
2023-01-27T01:57:34.901Z,3.25
2023-01-27T02:00:15.974Z,3.20
2023-01-27T02:03:04.905Z,3.45
2023-01-27T02:05:45.556Z,3.67
2023-01-27T02:08:38.884Z,3.55
2023-01-27T02:11:25.890Z,4.05
2023-01-27T02:14:15.890Z,4.00
2023-01-27T02:17:03.894Z,4.43
2023-01-27T02:20:05.892Z,4.30
2023-01-27T02:22:59.595Z,4.53
2023-01-27T02:25:48.882Z,4.00
2023-01-27T02:28:30.811Z,4.28
2023-01-27T02:31:18.095Z,4.47
2023-01-27T02:34:16.104Z,4.18
2023-01-27T02:37:13.878Z,4.47
2023-01-27T02:39:56.201Z,4.68
2023-01-27T02:42:43.880Z,4.25
2023-01-27T02:45:30.879Z,4.70
2023-01-27T02:48:10.934Z,5.03
2023-01-27T02:50:57.895Z,5.05
2023-01-27T02:53:41.117Z,5.07
2023-01-27T02:56:27.905Z,5.90
2023-01-27T02:59:07.994Z,6.07
2023-01-27T03:01:54.881Z,5.93
2023-01-27T03:04:38.807Z,5.00
2023-01-27T03:07:27.892Z,5.78
2023-01-27T03:10:07.941Z,6.05
2023-01-27T03:12:54.889Z,5.82
2023-01-27T03:15:59.895Z,5.35
2023-01-27T03:18:40.380Z,5.57
2023-01-27T03:21:27.888Z,5.75
2023-01-27T03:24:08.433Z,6.07
2023-01-27T03:26:54.895Z,5.60
2023-01-27T03:30:01.898Z,5.47
2023-01-27T03:32:48.746Z,5.47
2023-01-27T03:36:22.884Z,5.30
2023-01-27T03:39:27.887Z,5.70
2023-01-27T03:42:27.963Z,5.72
2023-01-27T03:45:32.894Z,5.07
2023-01-27T03:48:13.912Z,4.75
2023-01-27T03:51:00.902Z,4.45
2023-01-27T03:53:41.430Z,4.07
2023-01-27T03:56:28.877Z,4.13
2023-01-27T03:59:09.396Z,4.40
2023-01-27T04:01:55.874Z,4.47
2023-01-27T04:04:54.848Z,4.35
2023-01-27T04:07:41.904Z,3.92
2023-01-27T04:10:22.415Z,4.07
2023-01-27T04:13:08.893Z,4.55
2023-01-27T04:16:01.037Z,4.50
2023-01-27T04:18:40.889Z,3.80
2023-01-27T04:21:28.282Z,4.03
2023-01-27T04:24:08.967Z,3.78
2023-01-27T04:26:54.744Z,3.33
2023-01-27T04:29:43.889Z,3.55
2023-01-27T04:32:30.882Z,3.15
2023-01-27T04:35:18.184Z,3.20
2023-01-27T04:38:05.901Z,2.90
2023-01-27T04:40:46.104Z,2.88
2023-01-27T04:43:32.901Z,2.63
2023-01-27T04:46:19.896Z,3.00
2023-01-27T04:49:13.876Z,2.83
2023-01-27T04:52:01.910Z,2.70
2023-01-27T04:54:41.923Z,2.83
2023-01-27T04:57:28.889Z,2.85
2023-01-27T05:00:12.932Z,2.50
2023-01-27T05:02:59.957Z,2.90
2023-01-27T05:05:39.933Z,2.72
2023-01-27T05:08:26.874Z,2.67
2023-01-27T05:11:07.006Z,2.75
2023-01-27T05:13:54.907Z,2.38
2023-01-27T05:16:35.006Z,2.80
2023-01-27T05:19:21.888Z,2.55
2023-01-27T05:22:01.968Z,2.65
2023-01-27T05:24:48.879Z,2.80
2023-01-27T05:27:28.944Z,2.60
2023-01-27T05:30:16.893Z,2.88
2023-01-27T05:33:03.877Z,2.70
2023-01-27T05:35:44.432Z,2.70
2023-01-27T05:38:30.878Z,2.65
2023-01-27T05:41:18.907Z,2.78
2023-01-27T05:44:07.893Z,2.70
2023-01-27T05:46:48.524Z,2.53
2023-01-27T05:49:34.900Z,2.63
2023-01-27T05:52:15.363Z,2.30
2023-01-27T05:55:01.893Z,2.58
2023-01-27T05:57:48.898Z,2.33
2023-01-27T06:00:28.906Z,2.20
2023-01-27T06:03:15.969Z,2.28
2023-01-27T06:06:00.970Z,2.30
2023-01-27T06:08:47.899Z,2.00
2023-01-27T06:11:28.942Z,1.90
2023-01-27T06:14:15.923Z,1.88
2023-01-27T06:16:55.951Z,1.73
2023-01-27T06:19:42.882Z,1.90
2023-01-27T06:22:22.987Z,2.00
2023-01-27T06:25:09.873Z,1.90
2023-01-27T06:27:56.891Z,1.75
2023-01-27T06:30:39.318Z,2.10
2023-01-27T06:33:25.905Z,1.95
2023-01-27T06:36:09.216Z,1.90
2023-01-27T06:38:55.861Z,2.10
2023-01-27T06:41:36.501Z,2.00
2023-01-27T06:44:22.873Z,2.10
2023-01-27T06:47:09.961Z,2.17
2023-01-27T06:49:49.876Z,2.00
2023-01-27T06:52:36.938Z,2.22
2023-01-27T06:55:16.884Z,2.20
2023-01-27T06:57:57.484Z,2.30
2023-01-27T07:00:43.896Z,2.05
2023-01-27T07:03:24.788Z,2.05
2023-01-27T07:06:11.899Z,2.00
2023-01-27T07:08:58.888Z,2.42
2023-01-27T07:11:38.938Z,2.00
2023-01-27T07:14:25.890Z,2.40
2023-01-27T07:17:05.945Z,2.00
2023-01-27T07:19:52.889Z,2.20
2023-01-27T07:22:39.874Z,1.88
2023-01-27T07:25:26.871Z,2.30
2023-01-27T07:28:14.892Z,2.13
2023-01-27T07:31:02.140Z,2.10
2023-01-27T07:33:41.933Z,2.75
2023-01-27T07:36:22.367Z,2.38
2023-01-27T07:39:08.888Z,2.03
2023-01-27T07:41:55.888Z,2.67
2023-01-27T07:44:43.883Z,2.25
2023-01-27T07:47:30.884Z,2.00
2023-01-27T07:50:12.557Z,2.20
2023-01-27T07:52:58.894Z,2.10
2023-01-27T07:55:39.941Z,1.80
2023-01-27T07:58:26.896Z,2.00
2023-01-27T08:01:11.045Z,1.80
2023-01-27T08:03:57.863Z,2.00
2023-01-27T08:06:37.944Z,1.90
2023-01-27T08:09:24.876Z,1.80
2023-01-27T08:12:04.956Z,2.00
2023-01-27T08:14:51.879Z,1.88
2023-01-27T08:17:31.915Z,1.80
2023-01-27T08:20:18.892Z,1.80
2023-01-27T08:22:58.951Z,1.70
2023-01-27T08:25:45.897Z,2.10
2023-01-27T08:28:26.933Z,1.85
2023-01-27T08:31:16.957Z,1.60
2023-01-27T08:34:06.886Z,1.60
2023-01-27T08:36:47.442Z,1.98
2023-01-27T08:39:33.893Z,1.80
2023-01-27T08:42:14.385Z,4.03
2023-01-27T08:45:00.886Z,1.63
2023-01-27T08:47:41.473Z,1.70
2023-01-27T08:50:27.932Z,1.50
2023-01-27T08:53:14.895Z,1.52
2023-01-27T08:55:55.929Z,1.40
2023-01-27T09:01:29.935Z,1.50
2023-01-27T09:04:10.474Z,1.40
2023-01-27T09:06:56.912Z,1.40
2023-01-27T09:09:37.378Z,1.77
2023-01-27T09:12:23.884Z,1.35
2023-01-27T09:15:04.769Z,1.50
2023-01-27T09:20:34.337Z,1.70
2023-01-27T09:23:20.903Z,1.40
2023-01-27T09:28:47.881Z,1.42
2023-01-27T09:31:28.466Z,1.30
2023-01-27T09:34:14.896Z,1.63
2023-01-27T09:39:48.924Z,1.70
2023-01-27T09:42:35.425Z,1.90
2023-01-27T09:45:24.896Z,1.98
2023-01-27T09:48:37.882Z,2.20
2023-01-27T09:51:52.876Z,1.85
2023-01-27T09:55:12.091Z,1.60
2023-01-27T09:58:24.654Z,2.38
2023-01-27T10:01:26.969Z,1.92
2023-01-27T10:04:33.922Z,1.90
2023-01-27T10:07:52.875Z,1.95
2023-01-27T10:11:09.883Z,1.75
2023-01-27T10:14:14.996Z,2.10
2023-01-27T10:17:34.898Z,2.25
2023-01-27T10:20:41.895Z,2.10
2023-01-27T10:23:39.675Z,2.05
2023-01-27T10:26:47.893Z,1.85
2023-01-27T10:29:52.947Z,2.10
2023-01-27T10:32:44.890Z,2.00
2023-01-27T10:36:03.956Z,2.17
2023-01-27T10:39:14.888Z,2.25
2023-01-27T10:42:03.219Z,2.40
2023-01-27T10:45:05.880Z,2.50
2023-01-27T10:48:11.912Z,2.63
2023-01-27T10:51:28.369Z,2.42
2023-01-27T10:54:22.903Z,2.25
2023-01-27T10:57:07.207Z,2.50
2023-01-27T11:00:37.973Z,2.25
2023-01-27T11:03:29.995Z,1.98
2023-01-27T11:06:28.884Z,2.20
2023-01-27T11:09:38.920Z,2.15
2023-01-27T11:12:30.733Z,2.33
2023-01-27T11:15:39.879Z,1.88
2023-01-27T11:18:26.106Z,2.00
2023-01-27T11:21:17.944Z,1.85
2023-01-27T11:24:05.784Z,1.92
2023-01-27T11:27:04.907Z,1.88
2023-01-27T11:30:02.947Z,2.17
2023-01-27T11:33:13.957Z,1.95
2023-01-27T11:36:00.897Z,1.90
2023-01-27T11:38:41.935Z,2.03
2023-01-27T11:41:29.893Z,2.08
2023-01-27T11:44:35.883Z,2.20
2023-01-27T11:47:40.907Z,2.30
2023-01-27T11:50:36.886Z,2.08
2023-01-27T11:53:31.909Z,1.95
2023-01-27T11:56:33.013Z,2.00
2023-01-27T11:59:33.905Z,2.10
2023-01-27T12:02:13.944Z,2.30
2023-01-27T12:05:43.916Z,1.90
2023-01-27T12:08:55.891Z,2.00
2023-01-27T12:11:36.395Z,2.28
2023-01-27T12:14:26.900Z,2.03
2023-01-27T12:17:08.549Z,2.28
2023-01-27T12:19:56.929Z,2.20
2023-01-27T12:22:48.461Z,2.00
2023-01-27T12:26:01.900Z,2.38
2023-01-27T12:28:50.619Z,2.30
2023-01-27T12:31:45.971Z,2.15
2023-01-27T12:34:37.704Z,2.22
2023-01-27T12:37:34.879Z,2.00
2023-01-27T12:40:26.904Z,2.38
2023-01-27T12:43:19.924Z,3.38
2023-01-27T12:46:18.921Z,3.00
2023-01-27T12:49:19.958Z,4.93
2023-01-27T12:52:10.977Z,2.13
2023-01-27T12:54:53.162Z,2.20
2023-01-27T12:57:39.906Z,2.00
2023-01-27T13:00:20.965Z,2.00
2023-01-27T13:03:13.867Z,1.90
2023-01-27T13:05:54.072Z,2.00
2023-01-27T13:08:45.888Z,2.10
2023-01-27T13:11:39.064Z,2.00
2023-01-27T13:14:25.912Z,2.00
2023-01-27T13:17:13.896Z,2.10
2023-01-27T13:20:04.906Z,2.03
2023-01-27T13:22:58.893Z,2.40
2023-01-27T13:25:54.427Z,1.90
2023-01-27T13:29:01.890Z,1.73
2023-01-27T13:32:15.968Z,1.95
2023-01-27T13:35:04.892Z,1.95
2023-01-27T13:38:24.092Z,2.00
2023-01-27T13:41:10.902Z,2.10
2023-01-27T13:44:23.972Z,2.03
2023-01-27T13:47:10.896Z,1.90
2023-01-27T13:50:04.912Z,2.03
2023-01-27T13:52:51.893Z,1.90
2023-01-27T13:56:08.003Z,2.00
2023-01-27T13:59:04.917Z,2.03
2023-01-27T14:02:23.150Z,2.10
2023-01-27T14:05:33.896Z,2.15
2023-01-27T14:08:49.473Z,1.80
2023-01-27T14:11:42.897Z,2.08
2023-01-27T14:14:52.464Z,2.20
2023-01-27T14:17:50.916Z,2.00
2023-01-27T14:20:46.980Z,2.10
2023-01-27T14:23:32.906Z,2.28
2023-01-27T14:26:35.729Z,1.98
2023-01-27T14:29:55.913Z,1.80
2023-01-27T14:33:09.303Z,1.90
2023-01-27T14:36:22.911Z,1.90
2023-01-27T14:39:40.892Z,1.95
2023-01-27T14:43:02.029Z,1.90
2023-01-27T14:45:51.892Z,2.28
2023-01-27T14:48:44.925Z,2.10
2023-01-27T14:51:55.967Z,2.30
2023-01-27T14:54:56.908Z,2.10
2023-01-27T14:58:06.909Z,2.20
2023-01-27T15:01:10.978Z,2.47
2023-01-27T15:04:24.896Z,2.13
2023-01-27T15:07:41.981Z,2.00
2023-01-27T15:10:37.904Z,2.22
2023-01-27T15:13:35.960Z,2.40
2023-01-27T15:16:25.953Z,2.45
2023-01-27T15:19:42.888Z,2.30
2023-01-27T15:23:01.909Z,2.40
2023-01-27T15:25:46.956Z,2.55
2023-01-27T15:28:39.940Z,2.50
2023-01-27T15:31:29.999Z,2.90
2023-01-27T15:34:44.462Z,2.35
2023-01-27T15:37:29.058Z,2.47
2023-01-27T15:40:17.912Z,2.50
2023-01-27T15:43:13.903Z,2.45
2023-01-27T15:46:03.018Z,2.42
2023-01-27T15:48:45.904Z,2.30
2023-01-27T15:51:27.964Z,2.40
2023-01-27T15:54:15.910Z,2.47
2023-01-27T15:57:04.885Z,2.20
2023-01-27T16:00:01.893Z,2.60
2023-01-27T16:02:50.984Z,2.08
2023-01-27T16:05:50.887Z,2.30
2023-01-27T16:08:56.898Z,2.20
2023-01-27T16:11:42.991Z,2.17
2023-01-27T16:14:51.887Z,2.45
2023-01-27T16:17:39.908Z,2.40
2023-01-27T16:20:41.907Z,2.47
2023-01-27T16:23:57.900Z,2.30
2023-01-27T16:26:56.988Z,2.47
2023-01-27T16:30:01.925Z,2.55
2023-01-27T16:32:51.960Z,2.83
2023-01-27T16:36:04.920Z,2.70
2023-01-27T16:38:54.914Z,2.35
2023-01-27T16:41:38.966Z,2.30
2023-01-27T16:44:46.892Z,2.45
2023-01-27T16:47:43.375Z,2.50
2023-01-27T16:50:51.893Z,2.40
2023-01-27T16:53:32.676Z,2.58
2023-01-27T16:56:28.916Z,2.60
2023-01-27T16:59:26.662Z,2.22
2023-01-27T17:02:09.918Z,2.47
2023-01-27T17:04:56.280Z,2.40
2023-01-27T17:07:43.081Z,2.38
2023-01-27T17:10:34.383Z,2.42
2023-01-27T17:13:35.910Z,2.55
2023-01-27T17:16:21.995Z,2.55
2023-01-27T17:19:17.910Z,2.47
2023-01-27T17:22:06.703Z,2.42
2023-01-27T17:24:58.944Z,2.30
2023-01-27T17:27:47.960Z,2.55
2023-01-27T17:30:42.008Z,2.50
2023-01-27T17:33:34.895Z,2.53
2023-01-27T17:36:15.579Z,2.60
2023-01-27T17:39:07.907Z,2.90
2023-01-27T17:41:54.949Z,3.15
2023-01-27T17:44:34.912Z,2.90
2023-01-27T17:47:33.887Z,2.70
2023-01-27T17:50:37.912Z,2.72
2023-01-27T17:53:26.905Z,3.00
2023-01-27T17:56:15.999Z,2.75
2023-01-27T17:59:21.906Z,2.83
2023-01-27T18:02:08.042Z,2.58
2023-01-27T18:04:55.909Z,2.90
2023-01-27T18:07:44.907Z,3.00
2023-01-27T18:10:50.920Z,2.80
2023-01-27T18:13:33.992Z,2.90
2023-01-27T18:16:22.936Z,2.78
2023-01-27T18:19:29.053Z,2.63
2023-01-27T18:22:23.876Z,2.60
2023-01-27T18:25:08.189Z,2.47
2023-01-27T18:27:59.880Z,2.70
2023-01-27T18:30:39.979Z,2.65
2023-01-27T18:33:26.891Z,2.85
2023-01-27T18:36:07.961Z,2.42
2023-01-27T18:38:54.906Z,2.85
2023-01-27T18:41:38.147Z,2.85
2023-01-27T18:44:25.910Z,2.78
2023-01-27T18:47:37.893Z,2.88
2023-01-27T18:50:35.912Z,2.80
2023-01-27T18:53:19.466Z,2.58
2023-01-27T18:56:07.903Z,2.88
2023-01-27T18:58:54.899Z,2.90
2023-01-27T19:01:36.084Z,2.78
2023-01-27T19:04:22.905Z,3.20
2023-01-27T19:07:05.093Z,2.83
2023-01-27T19:09:53.922Z,2.80
2023-01-27T19:12:33.959Z,2.70
2023-01-27T19:15:21.920Z,2.90
2023-01-27T19:18:03.961Z,3.28
2023-01-27T19:20:50.894Z,2.75
2023-01-27T19:23:32.402Z,3.33
2023-01-27T19:26:27.889Z,2.80
2023-01-27T19:29:08.969Z,2.83
2023-01-27T19:31:55.914Z,2.60
2023-01-27T19:34:36.001Z,2.88
2023-01-27T19:37:24.904Z,2.85
2023-01-27T19:40:11.894Z,2.95
2023-01-27T19:42:58.909Z,2.85
2023-01-27T19:45:38.977Z,2.97
2023-01-27T19:48:28.911Z,3.05
2023-01-27T19:51:23.889Z,3.30
2023-01-27T19:54:10.918Z,3.38
2023-01-27T19:56:51.951Z,3.78
2023-01-27T19:59:38.889Z,3.28
2023-01-27T20:02:26.963Z,3.50
2023-01-27T20:05:07.961Z,3.63
2023-01-27T20:07:54.906Z,3.10
2023-01-27T20:10:35.495Z,3.38
2023-01-27T20:13:26.887Z,3.78
2023-01-27T20:16:07.784Z,3.33
2023-01-27T20:18:54.879Z,3.45
2023-01-27T20:21:35.467Z,3.53
2023-01-27T20:24:23.936Z,3.70
2023-01-27T20:27:04.431Z,3.92
2023-01-27T20:29:51.887Z,3.38
2023-01-27T20:32:32.384Z,3.72
2023-01-27T20:35:18.888Z,3.35
2023-01-27T20:38:05.900Z,3.05
2023-01-27T20:40:52.900Z,3.85
2023-01-27T20:43:35.507Z,3.58
2023-01-27T20:46:26.897Z,3.67
2023-01-27T20:49:13.983Z,3.90
2023-01-27T20:52:01.890Z,4.13
2023-01-27T20:54:48.915Z,3.42
2023-01-27T20:57:31.091Z,3.97
2023-01-27T21:00:18.917Z,4.03
2023-01-27T21:03:08.899Z,4.18
2023-01-27T21:05:50.016Z,4.20
2023-01-27T21:08:36.901Z,4.03
2023-01-27T21:11:18.395Z,4.32
2023-01-27T21:14:05.899Z,5.00
2023-01-27T21:16:46.273Z,4.50
2023-01-27T21:19:32.904Z,4.22
2023-01-27T21:22:12.978Z,4.75
2023-01-27T21:24:59.888Z,4.47
2023-01-27T21:27:41.721Z,4.75
2023-01-27T21:30:27.893Z,4.38
2023-01-27T21:33:14.908Z,4.75
2023-01-27T21:36:01.897Z,4.60
2023-01-27T21:38:48.922Z,4.28
2023-01-27T21:41:53.998Z,4.35
2023-01-27T21:44:54.905Z,4.32
2023-01-27T21:47:41.898Z,4.28
2023-01-27T21:50:21.951Z,4.68
2023-01-27T21:53:16.891Z,4.07
2023-01-27T21:55:56.940Z,3.90
2023-01-27T21:58:43.900Z,4.43
2023-01-27T22:01:24.014Z,4.50
2023-01-27T22:04:10.994Z,5.15
2023-01-27T22:06:50.959Z,4.50
2023-01-27T22:09:37.880Z,4.72
2023-01-27T22:12:21.837Z,4.80
2023-01-27T22:15:08.904Z,4.90
2023-01-27T22:17:50.263Z,4.85
2023-01-27T22:20:39.885Z,5.38
2023-01-27T22:23:20.474Z,4.70
2023-01-27T22:26:06.892Z,4.55
2023-01-27T22:28:46.947Z,4.90
2023-01-27T22:31:33.898Z,4.57
2023-01-27T22:34:16.947Z,4.80
2023-01-27T22:37:03.907Z,5.10
2023-01-27T22:39:43.987Z,4.95
2023-01-27T22:42:30.893Z,4.85
2023-01-27T22:45:11.014Z,5.10
2023-01-27T22:47:58.900Z,5.07
2023-01-27T22:50:40.561Z,5.00
2023-01-27T22:53:26.891Z,4.95
2023-01-27T22:56:09.525Z,4.40
2023-01-27T22:58:55.894Z,4.57
2023-01-27T23:01:42.889Z,5.25
2023-01-27T23:04:29.907Z,4.68
2023-01-27T23:07:09.940Z,4.82
2023-01-27T23:09:56.920Z,5.00
2023-01-27T23:12:36.975Z,4.78
2023-01-27T23:15:23.888Z,4.40
2023-01-27T23:18:11.176Z,4.55
2023-01-27T23:20:57.887Z,4.45
2023-01-27T23:23:37.992Z,4.22
2023-01-27T23:26:24.891Z,4.13
2023-01-27T23:29:10.766Z,4.20
2023-01-27T23:32:03.047Z,4.47
2023-01-27T23:34:42.961Z,4.10
2023-01-27T23:37:29.901Z,4.43
2023-01-27T23:40:09.940Z,4.10
2023-01-27T23:42:56.894Z,4.53
2023-01-27T23:45:38.010Z,4.25
2023-01-27T23:48:25.886Z,4.32
2023-01-27T23:51:26.897Z,4.18
2023-01-27T23:54:13.893Z,4.50
2023-01-27T23:56:53.947Z,5.30
2023-01-27T23:59:41.883Z,4.55
